createdAt,value
2024-03-12T00:03:18.053Z,26.87
2024-03-12T00:07:23.283Z,27.01
2024-03-12T00:11:26.016Z,26.45
2024-03-12T00:15:37.496Z,27.15
2024-03-12T00:19:41.743Z,26.13
2024-03-12T00:23:43.673Z,26.79
2024-03-12T00:27:45.510Z,26.34
2024-03-12T00:31:46.960Z,26.90
2024-03-12T00:35:48.596Z,27.82
2024-03-12T00:39:51.167Z,27.25
2024-03-12T00:43:53.268Z,27.91
2024-03-12T00:47:55.271Z,28.04
2024-03-12T00:51:57.866Z,27.13
2024-03-12T00:55:59.457Z,26.89
2024-03-12T01:00:02.555Z,27.39
2024-03-12T01:04:04.520Z,27.73
2024-03-12T01:08:10.172Z,27.77
2024-03-12T01:12:11.735Z,27.63
2024-03-12T01:16:13.277Z,27.40
2024-03-12T01:20:17.803Z,28.32
2024-03-12T01:24:20.119Z,27.23
2024-03-12T01:28:23.702Z,27.99
2024-03-12T01:32:26.688Z,28.52
2024-03-12T01:36:35.718Z,27.80
2024-03-12T01:40:37.512Z,27.98
2024-03-12T01:44:40.661Z,27.61
2024-03-12T01:48:42.102Z,28.24
2024-03-12T01:52:44.842Z,28.85
2024-03-12T01:56:48.927Z,28.01
2024-03-12T02:00:51.148Z,28.71
2024-03-12T02:04:52.676Z,28.42
2024-03-12T02:08:54.804Z,28.30
2024-03-12T02:12:59.444Z,28.13
2024-03-12T02:17:00.864Z,28.51
2024-03-12T02:21:04.902Z,27.74
2024-03-12T02:25:08.162Z,27.45
2024-03-12T02:29:11.484Z,27.49
2024-03-12T02:33:15.268Z,27.14
2024-03-12T02:37:16.968Z,27.36
2024-03-12T02:41:22.792Z,26.70
2024-03-12T02:45:24.895Z,27.68
2024-03-12T02:49:26.925Z,28.04
2024-03-12T02:53:28.405Z,26.26
2024-03-12T02:57:29.890Z,27.20
2024-03-12T03:01:31.491Z,27.75
2024-03-12T03:05:33.509Z,27.00
2024-03-12T03:09:35.671Z,27.56
2024-03-12T03:13:37.328Z,27.98
2024-03-12T03:17:39.997Z,27.50
2024-03-12T03:21:41.545Z,26.76
2024-03-12T03:25:43.396Z,27.07
2024-03-12T03:29:44.794Z,26.92
2024-03-12T03:33:49.192Z,26.88
2024-03-12T03:37:50.688Z,27.14
2024-03-12T03:41:53.178Z,27.11
2024-03-12T03:45:54.632Z,27.26
2024-03-12T03:49:56.281Z,27.21
2024-03-12T03:54:02.014Z,26.23
2024-03-12T03:58:03.580Z,26.48
2024-03-12T04:02:06.661Z,26.15
2024-03-12T04:06:08.235Z,26.68
2024-03-12T04:10:12.860Z,26.71
2024-03-12T04:14:14.418Z,26.38
2024-03-12T04:18:20.055Z,26.63
2024-03-12T04:22:21.674Z,27.09
2024-03-12T04:26:23.438Z,27.48
2024-03-12T04:30:25.316Z,26.69
2024-03-12T04:34:26.790Z,26.61
2024-03-12T04:38:31.260Z,27.00
2024-03-12T04:42:38.789Z,26.83
2024-03-12T04:46:52.755Z,26.81
2024-03-12T04:50:54.632Z,27.26
2024-03-12T04:54:58.510Z,27.12
2024-03-12T04:59:00.032Z,27.71
2024-03-12T05:03:01.545Z,27.99
2024-03-12T05:07:03.068Z,27.26
2024-03-12T05:11:04.821Z,27.05
2024-03-12T05:15:07.257Z,27.79
2024-03-12T05:19:11.989Z,27.01
2024-03-12T05:23:14.519Z,27.96
2024-03-12T05:27:26.918Z,27.40
2024-03-12T05:31:32.775Z,26.43
2024-03-12T05:35:34.865Z,26.92
2024-03-12T05:39:49.312Z,27.19
2024-03-12T05:44:09.435Z,26.50
2024-03-12T05:48:11.456Z,27.24
2024-03-12T05:52:13.128Z,26.46
2024-03-12T05:56:17.009Z,26.33
2024-03-12T06:00:20.607Z,26.96
2024-03-12T06:04:22.087Z,26.32
2024-03-12T06:08:25.719Z,26.16
2024-03-12T06:12:27.387Z,26.80
2024-03-12T06:16:29.152Z,27.68
2024-03-12T06:20:31.889Z,27.18
2024-03-12T06:24:33.482Z,26.39
2024-03-12T06:28:35.571Z,26.55
2024-03-12T06:32:37.016Z,26.76
2024-03-12T06:36:40.105Z,26.86
2024-03-12T06:40:41.640Z,26.54
2024-03-12T06:44:43.892Z,26.63
2024-03-12T06:48:47.148Z,27.25
2024-03-12T06:52:52.009Z,26.63
2024-03-12T06:56:54.903Z,26.61
2024-03-12T07:00:57.112Z,26.84
2024-03-12T07:04:58.959Z,27.29
2024-03-12T07:09:04.477Z,27.00
2024-03-12T07:13:08.531Z,26.55
2024-03-12T07:17:15.407Z,27.73
2024-03-12T07:21:17.386Z,26.71
2024-03-12T07:25:18.912Z,27.33
2024-03-12T07:29:20.404Z,27.16
2024-03-12T07:33:22.090Z,27.14
2024-03-12T07:37:23.544Z,27.33
2024-03-12T07:41:25.028Z,27.75
2024-03-12T07:45:27.832Z,27.96
2024-03-12T07:49:29.696Z,27.87
2024-03-12T07:53:31.887Z,27.47
2024-03-12T07:57:33.690Z,27.40
2024-03-12T08:01:35.664Z,26.70
2024-03-12T08:05:37.198Z,26.80
2024-03-12T08:09:39.568Z,26.29
2024-03-12T08:13:41.169Z,26.80
2024-03-12T08:17:44.622Z,26.96
2024-03-12T08:21:47.985Z,25.98
2024-03-12T08:25:56.209Z,26.68
2024-03-12T08:30:01.752Z,26.84
2024-03-12T08:34:04.306Z,26.79
2024-03-12T08:38:05.832Z,25.84
2024-03-12T08:42:10.546Z,25.85
2024-03-12T08:46:12.358Z,25.85
2024-03-12T08:50:13.851Z,25.34
2024-03-12T08:54:15.572Z,25.41
2024-03-12T08:58:18.419Z,25.64
2024-03-12T09:02:19.929Z,25.63
2024-03-12T09:06:21.684Z,25.88
2024-03-12T09:10:23.737Z,25.53
2024-03-12T09:14:25.833Z,25.42
2024-03-12T09:18:27.800Z,25.31
2024-03-12T09:22:30.008Z,25.71
2024-03-12T09:26:33.232Z,24.98
2024-03-12T09:30:35.441Z,25.27
2024-03-12T09:34:40.348Z,24.99
2024-03-12T09:38:42.473Z,25.52
2024-03-12T09:42:48.254Z,24.85
2024-03-12T09:46:50.356Z,24.37
2024-03-12T09:50:51.992Z,24.38
2024-03-12T09:54:53.608Z,24.29
2024-03-12T09:58:55.840Z,24.00
2024-03-12T10:03:00.960Z,24.05
2024-03-12T10:07:03.019Z,24.26
2024-03-12T10:11:09.969Z,24.52
2024-03-12T10:15:13.345Z,24.23
2024-03-12T10:19:19.585Z,24.14
2024-03-12T10:23:23.515Z,24.86
2024-03-12T10:27:25.041Z,23.71
2024-03-12T10:31:30.190Z,24.06
2024-03-12T10:35:38.504Z,23.82
2024-03-12T10:39:45.347Z,23.30
2024-03-12T10:43:56.368Z,22.78
2024-03-12T10:47:59.552Z,22.76
2024-03-12T10:52:02.730Z,22.86
2024-03-12T10:56:11.561Z,22.57
2024-03-12T11:00:21.768Z,23.40
2024-03-12T11:04:24.109Z,22.71
2024-03-12T11:08:27.866Z,23.10
2024-03-12T11:12:29.288Z,23.68
2024-03-12T11:16:35.683Z,23.56
2024-03-12T11:20:41.298Z,23.94
2024-03-12T11:24:48.697Z,23.23
2024-03-12T11:28:51.380Z,23.20
2024-03-12T11:32:53.971Z,22.47
2024-03-12T11:37:13.839Z,23.06
2024-03-12T11:41:17.564Z,22.96
2024-03-12T11:45:48.329Z,22.11
2024-03-12T11:49:51.204Z,21.10
2024-03-12T11:53:53.645Z,21.49
2024-03-12T11:57:56.111Z,20.55
2024-03-12T12:01:59.518Z,20.61
2024-03-12T12:06:02.801Z,20.75
2024-03-12T12:10:04.742Z,20.83
2024-03-12T12:14:07.208Z,20.20
2024-03-12T12:18:11.961Z,20.35
2024-03-12T12:22:16.306Z,20.02
2024-03-12T12:26:20.421Z,19.40
2024-03-12T12:30:23.223Z,19.62
2024-03-12T12:34:29.374Z,19.49
2024-03-12T12:38:31.738Z,18.44
2024-03-12T12:42:34.717Z,18.54
2024-03-12T12:46:40.857Z,18.87
2024-03-12T12:50:42.757Z,19.51
2024-03-12T12:54:46.757Z,19.53
2024-03-12T12:58:48.807Z,18.76
2024-03-12T13:02:50.227Z,19.30
2024-03-12T13:06:56.133Z,19.75
2024-03-12T13:11:09.999Z,19.33
2024-03-12T13:15:25.546Z,19.45
2024-03-12T13:19:27.619Z,19.01
2024-03-12T13:23:32.031Z,18.63
2024-03-12T13:27:33.591Z,18.97
2024-03-12T13:31:35.404Z,18.67
2024-03-12T13:35:36.879Z,18.33
2024-03-12T13:39:38.821Z,18.73
2024-03-12T13:43:41.650Z,19.20
2024-03-12T13:47:43.069Z,19.05
2024-03-12T13:51:46.383Z,19.56
2024-03-12T13:55:47.863Z,19.15
2024-03-12T13:59:49.783Z,19.52
2024-03-12T14:03:52.733Z,19.24
2024-03-12T14:07:54.539Z,19.15
2024-03-12T14:11:56.133Z,19.33
2024-03-12T14:15:57.798Z,19.84
2024-03-12T14:19:59.237Z,20.08
2024-03-12T14:24:02.930Z,19.86
2024-03-12T14:28:06.663Z,20.05
2024-03-12T14:32:08.830Z,20.20
2024-03-12T14:36:11.159Z,19.89
2024-03-12T14:40:13.149Z,19.76
2024-03-12T14:44:15.160Z,20.66
2024-03-12T14:48:17.213Z,19.79
2024-03-12T14:52:18.601Z,19.89
2024-03-12T14:56:20.086Z,19.99
2024-03-12T15:00:21.879Z,19.55
2024-03-12T15:04:23.398Z,21.29
2024-03-12T15:08:25.034Z,19.91
2024-03-12T15:12:28.802Z,19.79
2024-03-12T15:16:31.821Z,19.55
2024-03-12T15:20:33.348Z,19.84
2024-03-12T15:24:36.151Z,21.40
2024-03-12T15:28:38.935Z,20.43
2024-03-12T15:32:40.872Z,19.96
2024-03-12T15:36:43.123Z,20.43
2024-03-12T15:40:45.272Z,21.50
2024-03-12T15:44:46.654Z,20.52
2024-03-12T15:48:48.400Z,20.13
2024-03-12T15:52:49.900Z,20.95
2024-03-12T15:56:52.677Z,20.49
2024-03-12T16:00:54.286Z,20.78
2024-03-12T16:04:55.750Z,20.37
2024-03-12T16:08:59.479Z,20.80
2024-03-12T16:13:02.812Z,20.24
2024-03-12T16:17:07.219Z,20.54
2024-03-12T16:21:08.738Z,21.01
2024-03-12T16:25:10.737Z,21.36
2024-03-12T16:29:12.273Z,22.17
2024-03-12T16:33:13.972Z,21.21
2024-03-12T16:37:15.621Z,21.51
2024-03-12T16:41:17.257Z,21.02
2024-03-12T16:45:18.747Z,21.15
2024-03-12T16:49:20.315Z,20.77
2024-03-12T16:53:22.041Z,21.12
2024-03-12T16:57:23.936Z,20.94
2024-03-12T17:01:25.769Z,20.75
2024-03-12T17:05:29.059Z,21.68
2024-03-12T17:09:30.762Z,22.79
2024-03-12T17:13:32.499Z,22.41
2024-03-12T17:17:34.508Z,21.75
2024-03-12T17:21:39.982Z,21.80
2024-03-12T17:25:41.786Z,21.80
2024-03-12T17:29:44.439Z,21.01
2024-03-12T17:33:48.702Z,21.60
2024-03-12T17:37:55.669Z,22.54
2024-03-12T17:41:57.396Z,22.39
2024-03-12T17:45:59.242Z,24.06
2024-03-12T17:50:03.671Z,24.89
2024-03-12T17:54:05.602Z,24.25
2024-03-12T17:58:07.959Z,25.21
2024-03-12T18:02:15.427Z,25.57
2024-03-12T18:06:20.183Z,25.74
2024-03-12T18:10:26.446Z,25.08
2024-03-12T18:14:30.257Z,25.99
2024-03-12T18:18:31.716Z,24.98
2024-03-12T18:22:33.295Z,24.69
2024-03-12T18:26:34.674Z,25.11
2024-03-12T18:30:37.510Z,25.64
2024-03-12T18:34:40.027Z,26.09
2024-03-12T18:38:41.479Z,25.95
2024-03-12T18:42:43.593Z,25.68
2024-03-12T18:46:45.046Z,26.39
2024-03-12T18:50:46.693Z,25.96
2024-03-12T18:54:48.609Z,26.06
2024-03-12T18:58:50.431Z,26.43
2024-03-12T19:02:53.701Z,26.23
2024-03-12T19:06:55.609Z,26.33
2024-03-12T19:10:57.352Z,26.11
2024-03-12T19:14:59.397Z,27.06
2024-03-12T19:19:04.158Z,26.47
2024-03-12T19:23:06.178Z,26.21
2024-03-12T19:27:14.416Z,26.01
2024-03-12T19:31:22.810Z,26.83
2024-03-12T19:35:24.644Z,26.05
2024-03-12T19:39:27.267Z,26.16
2024-03-12T19:43:29.646Z,26.88
2024-03-12T19:47:32.200Z,26.66
2024-03-12T19:51:34.465Z,27.89
2024-03-12T19:55:37.772Z,26.40
2024-03-12T19:59:39.854Z,26.80
2024-03-12T20:03:41.369Z,26.80
2024-03-12T20:07:46.830Z,27.02
2024-03-12T20:11:48.288Z,25.79
2024-03-12T20:15:50.119Z,27.22
2024-03-12T20:19:51.615Z,26.96
2024-03-12T20:23:53.061Z,27.89
2024-03-12T20:27:55.373Z,27.08
2024-03-12T20:31:58.586Z,27.77
2024-03-12T20:36:02.373Z,27.93
2024-03-12T20:40:10.599Z,28.82
2024-03-12T20:44:12.695Z,27.69
2024-03-12T20:48:14.720Z,29.64
2024-03-12T20:52:16.547Z,28.45
2024-03-12T20:56:18.043Z,29.00
2024-03-12T21:00:29.905Z,28.76
2024-03-12T21:04:35.122Z,30.63
2024-03-12T21:08:38.156Z,30.07
2024-03-12T21:12:40.464Z,28.33
2024-03-12T21:16:42.608Z,28.00
2024-03-12T21:20:44.168Z,28.01
2024-03-12T21:24:45.543Z,28.05
2024-03-12T21:28:47.988Z,28.19
2024-03-12T21:32:49.582Z,28.57
2024-03-12T21:36:51.468Z,28.64
2024-03-12T21:40:53.019Z,28.80
2024-03-12T21:44:54.431Z,29.40
2024-03-12T21:48:56.506Z,30.22
2024-03-12T21:52:59.539Z,30.11
2024-03-12T21:57:02.295Z,28.36
2024-03-12T22:01:04.272Z,29.94
2024-03-12T22:05:08.923Z,28.26
2024-03-12T22:09:10.834Z,27.53
2024-03-12T22:13:17.093Z,27.62
2024-03-12T22:17:22.526Z,29.15
2024-03-12T22:21:26.109Z,27.51
2024-03-12T22:25:27.936Z,28.62
2024-03-12T22:29:30.856Z,28.70
2024-03-12T22:33:34.355Z,29.27
2024-03-12T22:37:39.194Z,28.40
2024-03-12T22:41:48.276Z,27.81
2024-03-12T22:45:50.116Z,27.70
2024-03-12T22:49:54.427Z,27.55
2024-03-12T22:53:56.861Z,27.95
2024-03-12T22:58:06.282Z,29.67
2024-03-12T23:02:10.427Z,28.39
2024-03-12T23:06:12.249Z,27.92
2024-03-12T23:10:13.939Z,28.03
2024-03-12T23:14:16.661Z,27.41
2024-03-12T23:18:18.083Z,29.14
2024-03-12T23:22:19.718Z,27.86
2024-03-12T23:26:21.199Z,27.74
2024-03-12T23:30:23.169Z,27.11
2024-03-12T23:34:24.651Z,27.47
2024-03-12T23:38:26.093Z,27.73
2024-03-12T23:42:27.531Z,27.13
2024-03-12T23:46:29.809Z,29.00
2024-03-12T23:50:31.441Z,27.30
2024-03-12T23:54:32.825Z,28.12
2024-03-12T23:58:36.880Z,27.40
